メインページ
METAR-TAF:

METAR-TAF

空港 :

ポワンタピートル, グアドループ

ポワンタピートル国際空港

緯度: 16-16N, 経度: 061-31W, 海抜: 11m

現時点の気象観測

当レポートは24分前の11:30(UTC)に作成
の風 6kt
気温 24°C
湿度 89%
気圧 1015 hPa
視程: 7000m
高度3500ftの曇り

METAR: TFFR 231130Z AUTO 10006KT 7000 OVC035 24/22 Q1015 TEMPO 3000 SHRA SCT012CB

時間: 07:54 (11:54 UTC)

予報

当レポートは54分前の11:00(UTC)に作成
予報は23日の 12時(UTC)から 24日の 12時(UTC)まで有効
の風 12kt
視程10km以上
高度2500ftの雲は散在している
高度3500ftの雲は散在している
23日の 12時(UTC)から 23日の 21時(UTC)まで一時的に
視程: 3000m
高度1800ftの雲は散在している, 塔状積雲.
にわか雨
確率 30% :
23日の 12時(UTC)から 23日の 15時(UTC)まで一時的に
高度1200ftの雲は散在している, 積乱雲.
確率 30% :
24日の 06時(UTC)から 24日の 12時(UTC)まで一時的に
視程: 4000m
高度1800ftの雲は散在している, 塔状積雲.
にわか雨

TAF: TFFR 231100Z 2312/2412 10012KT 9999 SCT025 SCT035 TEMPO 2312/2321 3000 SHRA SCT018TCU PROB30 TEMPO 2312/2315 SCT012CB PROB30 TEMPO 2406/2412 4000 SHRA SCT018TCU

4,000以上の空港の気象観測と天気予報(METAR報とTAF報)

利用可能な観測所は地図上に黄色い丸と赤い丸で示す。

丸の上にカーソルを重ねると観測所名を参照できる。

次にクリックすると気象観測と天気予報を参照できる。

マップの切り替え:黒色「×」印の緑ボタンをクリックして拡大、「-」印の緑ボタンをクリックして縮小、緑色の三角印をクリックして隣りの地図に切り替え


METAR-TAF: